Time;durP1;ratioP1;P1;durP2;ratioP2;P2;SDS_P1;SDS_P2;PMS_P1;PMS_P2;Temp;Humidity;BMP_temperature;BMP_pressure;BME280_temperature;BME280_humidity;BME280_pressure;Samples;Min_cycle;Max_cycle;Signal;HPM_P1;HPM_P2
2022/06/07 00:01:03;;;;;;;;;1.00;1.00;;;;;19.94;56.79;100860.91;4958866;28;45974;-80
2022/06/07 00:03:29;;;;;;;;;1.00;1.00;;;;;19.85;57.14;100848.59;4959938;28;45787;-79
2022/06/07 00:05:55;;;;;;;;;0.00;0.00;;;;;19.71;57.42;100850.06;4959636;28;45707;-76
2022/06/07 00:08:22;;;;;;;;;1.00;0.50;;;;;19.66;57.79;100855.84;4961116;28;45844;-79
2022/06/07 00:10:48;;;;;;;;;0.00;0.00;;;;;19.65;58.28;100861.31;4962791;28;45627;-79
2022/06/07 00:13:15;;;;;;;;;1.00;1.00;;;;;19.60;58.31;100853.84;4962520;28;46765;-78
2022/06/07 00:15:41;;;;;;;;;1.00;1.00;;;;;19.54;58.46;100851.81;4962172;28;46366;-78
2022/06/07 00:18:07;;;;;;;;;1.00;1.00;;;;;19.43;58.31;100838.81;4961747;28;45642;-78
2022/06/07 00:20:34;;;;;;;;;0.00;0.00;;;;;19.48;58.89;100849.00;4961589;28;45925;-79
2022/06/07 00:23:00;;;;;;;;;1.00;1.00;;;;;19.44;58.54;100853.75;4961271;28;45662;-79
2022/06/07 00:25:26;;;;;;;;;1.00;1.00;;;;;19.46;58.93;100850.97;4961532;28;45649;-78
2022/06/07 00:27:51;;;;;;;;;0.50;0.50;;;;;19.41;58.76;100840.78;4964715;28;45770;-78
2022/06/07 00:30:17;;;;;;;;;0.00;0.00;;;;;19.41;59.36;100848.75;5043928;28;45848;-78
2022/06/07 00:32:44;;;;;;;;;1.00;1.00;;;;;19.36;59.08;100839.59;5044198;28;45703;-80
2022/06/07 00:35:12;;;;;;;;;1.00;1.00;;;;;19.39;59.72;100844.59;5043237;28;45899;-78
2022/06/07 00:37:38;;;;;;;;;0.00;0.00;;;;;19.32;59.22;100823.16;5043242;28;45590;-78
2022/06/07 00:40:05;;;;;;;;;2.00;1.00;;;;;19.36;59.71;100831.63;5040116;28;45710;-79
2022/06/07 00:42:31;;;;;;;;;1.00;0.75;;;;;19.25;59.97;100816.81;5035460;28;46631;-78
2022/06/07 00:44:57;;;;;;;;;1.00;1.00;;;;;19.32;59.75;100822.31;5035661;28;45691;-78
2022/06/07 00:47:26;;;;;;;;;1.00;0.75;;;;;19.34;59.88;100836.25;5035897;28;45595;-78
2022/06/07 00:50:06;;;;;;;;;0.50;0.00;;;;;19.21;60.46;100808.34;5035710;28;45444;-78
2022/06/07 00:52:34;;;;;;;;;1.50;1.00;;;;;19.24;60.15;100810.66;5035316;28;45729;-78
2022/06/07 00:55:01;;;;;;;;;1.00;1.00;;;;;19.28;60.07;100819.13;5035464;28;46464;-78
2022/06/07 00:57:27;;;;;;;;;1.00;1.00;;;;;19.22;60.50;100804.66;5035394;28;45533;-78
2022/06/07 00:59:53;;;;;;;;;1.00;1.00;;;;;19.20;60.21;100804.03;5035555;28;45693;-77
2022/06/07 01:02:21;;;;;;;;;1.50;1.00;;;;;19.24;60.29;100805.34;5051888;28;45695;-79
2022/06/07 01:04:47;;;;;;;;;2.00;1.00;;;;;19.25;60.33;100807.03;5055281;28;46300;-79
2022/06/07 01:12:40;;;;;;;;;1.00;1.00;;;;;19.16;60.84;100793.88;5059724;28;45991;-79
2022/06/07 01:15:07;;;;;;;;;1.00;1.00;;;;;19.17;60.96;100803.47;5062357;28;45619;-79
2022/06/07 01:17:32;;;;;;;;;1.25;1.25;;;;;19.12;61.21;100785.38;5055337;28;45643;-79
2022/06/07 01:19:58;;;;;;;;;1.00;1.00;;;;;19.09;61.38;100790.19;5059572;28;45479;-79
2022/06/07 01:22:24;;;;;;;;;1.00;1.00;;;;;19.05;61.55;100789.69;5056642;28;45472;-78
2022/06/07 01:24:49;;;;;;;;;2.75;1.75;;;;;19.06;61.76;100785.16;5054826;28;45665;-79
2022/06/07 01:27:15;;;;;;;;;1.00;1.00;;;;;19.08;61.15;100792.00;5055297;28;45666;-79
2022/06/07 01:33:02;;;;;;;;;1.00;1.00;;;;;19.09;61.25;100790.19;5054828;28;45690;-80
2022/06/07 01:35:27;;;;;;;;;2.75;2.25;;;;;19.03;61.81;100780.19;5055114;28;46670;-80
2022/06/07 01:37:53;;;;;;;;;1.00;1.00;;;;;19.06;61.25;100788.66;5055116;28;45520;-79
2022/06/07 01:43:02;;;;;;;;;1.00;1.00;;;;;19.05;61.46;100783.53;5048728;28;45630;-79
2022/06/07 01:45:27;;;;;;;;;1.00;1.00;;;;;19.09;61.48;100791.03;5054797;28;46359;-79
2022/06/07 01:47:54;;;;;;;;;2.25;1.50;;;;;19.05;61.61;100789.69;5055029;28;45557;-79
2022/06/07 01:50:19;;;;;;;;;1.75;1.75;;;;;19.09;62.14;100790.19;5055019;28;45500;-79
2022/06/07 01:52:45;;;;;;;;;1.50;1.25;;;;;19.02;61.68;100774.03;5054599;28;46581;-79
2022/06/07 01:55:10;;;;;;;;;2.00;2.00;;;;;19.07;61.93;100781.53;5054745;28;45558;-78
2022/06/07 01:57:36;;;;;;;;;1.25;1.00;;;;;19.07;61.79;100789.50;5054831;28;45655;-78
2022/06/07 02:03:37;;;;;;;;;2.50;2.50;;;;;19.11;62.31;100777.59;5039933;28;46010;-79
2022/06/07 02:06:06;;;;;;;;;1.50;1.00;;;;;19.08;62.20;100762.78;5034286;28;45828;-78
2022/06/07 02:08:32;;;;;;;;;1.00;1.00;;;;;19.13;61.76;100765.78;5034492;28;45764;-79
2022/06/07 02:11:09;;;;;;;;;0.25;0.25;;;;;19.12;62.18;100763.28;5034732;28;45584;-79
2022/06/07 02:13:37;;;;;;;;;2.50;2.00;;;;;19.16;62.14;100769.97;5034530;28;45615;-79
2022/06/07 02:16:03;;;;;;;;;1.00;0.75;;;;;19.04;61.65;100739.38;5034660;28;45494;-75
2022/06/07 02:18:28;;;;;;;;;2.00;1.75;;;;;19.05;62.04;100744.53;5035047;28;45747;-79
2022/06/07 02:20:56;;;;;;;;;1.50;1.50;;;;;19.12;62.36;100752.66;5034754;28;45674;-80
2022/06/07 02:23:22;;;;;;;;;1.00;1.00;;;;;19.06;62.23;100740.03;5034054;28;45566;-79
2022/06/07 02:25:51;;;;;;;;;1.50;1.00;;;;;19.09;62.55;100745.88;5034180;28;46465;-77
2022/06/07 02:28:20;;;;;;;;;1.50;1.50;;;;;19.04;62.23;100737.56;5034286;28;45685;-79
2022/06/07 02:30:46;;;;;;;;;2.00;1.50;;;;;19.04;62.12;100739.38;5034281;28;45553;-79
2022/06/07 02:33:13;;;;;;;;;1.00;1.00;;;;;19.05;61.96;100747.19;5034110;28;45665;-79
2022/06/07 02:35:42;;;;;;;;;2.00;1.00;;;;;19.10;62.13;100738.72;5034096;28;46368;-79
2022/06/07 02:38:09;;;;;;;;;1.00;1.00;;;;;19.08;62.27;100733.56;5034082;28;45603;-79
2022/06/07 02:40:35;;;;;;;;;2.00;2.00;;;;;19.04;62.42;100720.78;5034098;28;45564;-80
2022/06/07 02:49:26;;;;;;;;;1.25;1.25;;;;;19.10;62.71;100713.00;5033656;28;45710;-79
2022/06/07 02:51:52;;;;;;;;;1.00;1.00;;;;;19.18;62.48;100722.81;5033801;28;45771;-80
2022/06/07 02:54:17;;;;;;;;;1.75;1.75;;;;;19.16;62.54;100711.53;5033554;28;46456;-80
2022/06/07 02:56:43;;;;;;;;;2.00;1.25;;;;;19.18;62.55;100710.34;5033755;28;45701;-79
2022/06/07 02:59:08;;;;;;;;;4.25;2.50;;;;;19.22;62.32;100710.84;5033784;28;45570;-79
2022/06/07 03:01:34;;;;;;;;;1.50;1.50;;;;;19.28;62.43;100715.53;5014025;28;45897;-79
2022/06/07 03:03:59;;;;;;;;;2.00;2.00;;;;;19.26;62.46;100709.56;5031003;28;48404;-79
2022/06/07 03:06:25;;;;;;;;;3.00;2.25;;;;;19.27;62.14;100698.75;5053493;28;46239;-79
2022/06/07 03:08:50;;;;;;;;;2.50;2.00;;;;;19.24;61.95;100692.94;5053795;28;45671;-79
2022/06/07 03:11:16;;;;;;;;;2.00;2.00;;;;;19.28;62.44;100697.75;5053839;28;45661;-79
2022/06/07 03:13:41;;;;;;;;;2.50;2.25;;;;;19.32;61.90;100702.75;5053483;28;46617;-78
2022/06/07 03:16:06;;;;;;;;;1.25;1.25;;;;;19.32;62.23;100706.25;5053458;28;45539;-78
2022/06/07 03:18:32;;;;;;;;;1.50;0.00;;;;;19.27;62.06;100688.13;5053769;28;45597;-78
2022/06/07 03:20:57;;;;;;;;;2.50;2.50;;;;;19.35;62.21;100705.91;5053634;28;45619;-78
2022/06/07 03:23:23;;;;;;;;;3.25;3.00;;;;;19.39;61.99;100703.75;5053274;28;45593;-78
2022/06/07 03:25:48;;;;;;;;;2.00;2.00;;;;;19.39;62.19;100706.41;5053271;28;46081;-79
2022/06/07 03:28:14;;;;;;;;;2.00;2.00;;;;;19.35;62.03;100700.59;5053555;28;45527;-79
2022/06/07 03:34:01;;;;;;;;;3.00;3.00;;;;;19.40;62.25;100703.59;5053171;28;46114;-80
2022/06/07 03:36:29;;;;;;;;;2.00;2.00;;;;;19.38;62.28;100708.22;5053245;28;45714;-79
2022/06/07 03:38:58;;;;;;;;;3.25;2.25;;;;;19.31;62.39;100695.78;5053299;28;45539;-79
2022/06/07 03:41:25;;;;;;;;;3.00;2.75;;;;;19.38;62.72;100707.44;5053167;28;45605;-80
2022/06/07 03:43:52;;;;;;;;;1.50;1.00;;;;;19.31;62.58;100699.28;5055566;28;45650;-79
2022/06/07 03:46:20;;;;;;;;;2.00;2.00;;;;;19.38;62.54;100704.78;5056626;28;46620;-78
2022/06/07 03:48:46;;;;;;;;;2.25;2.25;;;;;19.29;62.78;100696.78;5056766;28;45690;-79
2022/06/07 03:51:14;;;;;;;;;2.75;2.00;;;;;19.36;62.97;100701.44;5056900;28;45659;-78
2022/06/07 03:53:40;;;;;;;;;2.00;2.00;;;;;19.36;62.51;100704.94;5056571;28;45596;-82
2022/06/07 03:56:06;;;;;;;;;3.00;2.75;;;;;19.39;62.71;100706.41;5054861;28;48263;-79
2022/06/07 03:58:32;;;;;;;;;2.25;2.00;;;;;19.33;62.65;100705.25;5056597;28;45801;-79
2022/06/07 04:04:20;;;;;;;;;2.00;2.00;;;;;19.33;63.21;100715.03;5043826;28;45685;-80
2022/06/07 04:09:42;;;;;;;;;3.00;2.00;;;;;19.33;63.42;100718.53;5036062;28;45559;-79
2022/06/07 04:12:10;;;;;;;;;2.00;2.00;;;;;19.32;63.23;100714.22;5036406;28;45794;-78
2022/06/07 04:14:40;;;;;;;;;3.00;3.00;;;;;19.30;63.40;100713.53;5036007;28;45513;-79
2022/06/07 04:17:07;;;;;;;;;2.00;2.00;;;;;19.25;63.88;100699.91;5036020;28;46382;-79
2022/06/07 04:19:34;;;;;;;;;3.00;3.00;;;;;19.28;64.37;100713.69;5036248;28;45653;-79
2022/06/07 04:22:00;;;;;;;;;2.75;2.00;;;;;19.25;64.28;100722.00;5036379;28;45587;-79
2022/06/07 04:24:25;;;;;;;;;3.00;2.25;;;;;19.15;64.31;100704.53;5036096;28;45608;-79
2022/06/07 04:26:51;;;;;;;;;2.75;2.75;;;;;19.21;64.42;100712.72;5036043;28;45444;-79
2022/06/07 04:29:16;;;;;;;;;2.00;2.00;;;;;19.24;64.48;100719.50;5036153;28;45593;-78
2022/06/07 04:31:42;;;;;;;;;3.00;3.00;;;;;19.20;64.45;100716.34;5036063;28;45486;-78
2022/06/07 04:34:08;;;;;;;;;2.25;2.25;;;;;19.23;64.99;100718.66;5035450;28;45752;-78
2022/06/07 04:36:35;;;;;;;;;1.50;1.50;;;;;19.22;65.25;100713.50;5035712;28;46453;-77
2022/06/07 04:39:03;;;;;;;;;2.75;2.50;;;;;19.22;65.59;100717.00;5036027;28;45578;-78
2022/06/07 04:41:28;;;;;;;;;3.50;3.25;;;;;19.17;65.77;100708.69;5035724;28;45558;-77
2022/06/07 04:43:55;;;;;;;;;3.25;3.25;;;;;19.15;65.90;100708.03;5035437;28;46408;-78
2022/06/07 04:46:21;;;;;;;;;2.50;2.50;;;;;19.16;65.96;100709.69;5035529;28;46336;-78
2022/06/07 04:48:48;;;;;;;;;3.50;3.50;;;;;19.18;66.00;100717.50;5035745;28;45602;-79
2022/06/07 04:51:17;;;;;;;;;3.00;3.00;;;;;19.10;65.65;100706.88;5035813;28;45547;-79
2022/06/07 04:53:42;;;;;;;;;5.00;4.00;;;;;19.13;66.36;100707.34;5035336;28;45658;-77
2022/06/07 04:56:10;;;;;;;;;3.00;2.50;;;;;19.15;66.23;100716.00;5034733;28;45570;-78
2022/06/07 04:58:36;;;;;;;;;3.00;2.00;;;;;19.14;66.80;100714.34;5035305;28;45754;-80
2022/06/07 05:04:24;;;;;;;;;3.00;3.00;;;;;19.09;66.71;100699.88;5046043;28;45996;-79
2022/06/07 05:06:50;;;;;;;;;2.00;2.00;;;;;19.13;66.85;100710.00;5055433;28;46074;-80
2022/06/07 05:09:20;;;;;;;;;3.00;3.00;;;;;19.08;67.18;100703.53;5055868;28;45484;-79
2022/06/07 05:11:46;;;;;;;;;2.00;2.00;;;;;19.11;67.37;100717.31;5055982;28;45608;-79
2022/06/07 05:14:12;;;;;;;;;4.00;3.00;;;;;19.06;67.11;100701.03;5055569;28;46506;-80
2022/06/07 05:16:41;;;;;;;;;2.25;2.25;;;;;19.01;67.11;100705.97;5037090;28;46338;-79
2022/06/07 05:19:10;;;;;;;;;3.00;3.00;;;;;18.98;67.70;100703.66;5055661;28;45626;-80
2022/06/07 05:21:35;;;;;;;;;2.00;2.00;;;;;18.91;67.50;100699.97;5055499;28;45524;-79
2022/06/07 05:24:01;;;;;;;;;3.25;2.75;;;;;18.93;67.19;100705.97;5055353;28;46445;-80
2022/06/07 05:26:39;;;;;;;;;1.00;1.00;;;;;18.92;67.49;100720.22;5055349;28;46177;-79
2022/06/07 05:29:06;;;;;;;;;2.00;2.00;;;;;18.88;67.49;100702.13;5055264;28;45571;-79
2022/06/07 05:34:53;;;;;;;;;2.75;2.75;;;;;18.78;67.83;100713.72;5055111;28;45525;-78
2022/06/07 05:37:21;;;;;;;;;2.75;2.50;;;;;18.75;68.18;100714.03;5055420;28;45504;-78
2022/06/07 05:39:47;;;;;;;;;3.00;2.25;;;;;18.78;68.15;100721.69;5055315;28;45625;-79
2022/06/07 05:42:15;;;;;;;;;2.00;2.00;;;;;18.74;67.84;100719.47;5055315;28;45778;-76
2022/06/07 05:44:42;;;;;;;;;2.00;2.00;;;;;18.68;68.63;100718.28;5053892;28;48429;-79
2022/06/07 05:47:08;;;;;;;;;2.50;2.00;;;;;18.71;68.00;100719.81;5054966;28;45931;-80
2022/06/07 05:49:34;;;;;;;;;2.25;2.25;;;;;18.69;68.37;100724.44;5055311;28;45790;-79
2022/06/07 05:52:01;;;;;;;;;2.00;1.00;;;;;18.61;68.55;100713.78;5036631;28;45504;-79
2022/06/07 05:54:31;;;;;;;;;2.00;2.00;;;;;18.63;68.05;100723.25;5054656;28;45590;-80
2022/06/07 05:56:57;;;;;;;;;2.00;2.00;;;;;18.63;68.29;100735.69;5055017;28;45586;-78
2022/06/07 05:59:23;;;;;;;;;2.00;1.00;;;;;18.64;68.50;100737.34;5055172;28;45754;-78
2022/06/07 06:05:10;;;;;;;;;2.00;2.00;;;;;18.64;68.68;100730.22;5050358;28;46023;-78
2022/06/07 06:10:19;;;;;;;;;2.50;2.00;;;;;18.60;68.63;100726.22;5054276;28;46361;-78
2022/06/07 06:10:22;;;;;;;;;2.75;2.00;;;;;18.56;68.37;100719.56;5054473;28;45726;-79
2022/06/07 06:12:48;;;;;;;;;2.00;1.00;;;;;18.57;68.71;100729.19;5054709;28;45613;-79
2022/06/07 06:15:13;;;;;;;;;1.00;1.00;;;;;18.57;68.68;100733.69;5054275;28;45679;-78
2022/06/07 06:17:40;;;;;;;;;2.50;2.00;;;;;18.58;68.44;100735.31;5054378;28;45689;-79
2022/06/07 06:20:06;;;;;;;;;2.25;2.25;;;;;18.50;69.24;100741.41;5036221;28;45860;-80
2022/06/07 06:22:34;;;;;;;;;2.25;2.25;;;;;18.35;69.74;100722.53;5054880;28;45761;-79
2022/06/07 06:24:59;;;;;;;;;2.25;2.00;;;;;18.39;69.52;100741.66;5054348;28;45609;-78
2022/06/07 06:27:25;;;;;;;;;2.25;2.25;;;;;18.32;70.11;100737.94;5054266;28;45580;-80
2022/06/07 06:29:51;;;;;;;;;3.50;3.00;;;;;18.36;70.17;100752.56;5054650;28;45661;-78
2022/06/07 06:32:16;;;;;;;;;4.25;4.00;;;;;18.37;70.29;100748.94;5054707;28;45590;-80
2022/06/07 06:34:41;;;;;;;;;3.00;3.00;;;;;18.35;69.85;100751.72;5054938;28;46550;-80
2022/06/07 06:37:07;;;;;;;;;2.75;2.00;;;;;18.36;70.59;100752.56;5054522;28;45751;-78
2022/06/07 06:39:32;;;;;;;;;2.75;2.75;;;;;18.40;70.39;100764.56;5054402;28;45611;-78
2022/06/07 06:41:58;;;;;;;;;3.00;2.00;;;;;18.44;70.63;100756.13;5054278;28;45683;-80
2022/06/07 06:44:23;;;;;;;;;4.00;3.00;;;;;18.48;70.71;100764.59;5054132;28;45598;-78
2022/06/07 06:50:11;;;;;;;;;3.25;3.25;;;;;18.52;70.75;100770.41;5054031;28;45602;-79
2022/06/07 06:52:37;;;;;;;;;2.00;2.00;;;;;18.49;70.55;100770.72;5054163;28;45577;-78
2022/06/07 06:55:03;;;;;;;;;2.00;2.00;;;;;18.47;70.92;100776.19;5054119;28;45661;-80
2022/06/07 06:57:32;;;;;;;;;2.00;2.00;;;;;18.38;71.01;100761.22;5054379;28;45818;-79
2022/06/07 06:59:58;;;;;;;;;3.00;3.00;;;;;18.34;70.84;100762.50;5055098;28;45702;-79
2022/06/07 07:02:29;;;;;;;;;2.00;1.25;;;;;18.28;71.28;100758.66;5055679;28;45645;-79
2022/06/07 07:04:58;;;;;;;;;1.50;1.50;;;;;18.25;72.10;100758.97;5045688;28;45523;-80
2022/06/07 07:07:23;;;;;;;;;2.00;2.00;;;;;18.24;71.72;100772.41;5033759;28;46543;-79
2022/06/07 07:09:50;;;;;;;;;2.50;2.00;;;;;18.24;71.80;100769.75;5033743;28;45717;-79
2022/06/07 07:12:16;;;;;;;;;1.00;1.00;;;;;18.23;71.38;100774.22;5033732;28;45668;-79
2022/06/07 07:14:41;;;;;;;;;1.75;1.75;;;;;18.16;71.44;100762.53;5033556;28;46468;-78
2022/06/07 07:20:29;;;;;;;;;2.00;1.25;;;;;18.28;71.72;100785.19;5034094;28;45775;-78
2022/06/07 07:22:54;;;;;;;;;0.00;0.00;;;;;18.32;70.95;100778.59;5033533;28;45544;-79
2022/06/07 07:25:20;;;;;;;;;1.00;0.75;;;;;18.25;70.86;100776.69;5033198;28;46682;-79
2022/06/07 07:27:48;;;;;;;;;0.00;0.00;;;;;18.24;70.85;100772.41;5033616;28;46046;-78
2022/06/07 07:30:14;;;;;;;;;1.00;1.00;;;;;18.29;70.38;100789.50;5033658;28;45660;-79
2022/06/07 07:32:39;;;;;;;;;0.00;0.00;;;;;18.22;69.80;100775.19;5033625;28;45719;-78
2022/06/07 07:35:05;;;;;;;;;0.00;0.00;;;;;18.27;69.30;100783.50;5033440;28;46472;-76
2022/06/07 07:37:31;;;;;;;;;0.50;0.50;;;;;18.21;69.53;100762.06;5033531;28;45614;-78
2022/06/07 07:39:57;;;;;;;;;1.00;0.00;;;;;18.21;69.32;100770.88;5033156;28;45652;-77
2022/06/07 07:42:22;;;;;;;;;0.75;0.00;;;;;18.31;69.18;100774.25;5033541;28;45857;-79
2022/06/07 07:44:48;;;;;;;;;0.00;0.00;;;;;18.30;69.52;100777.88;5033193;28;46613;-80
2022/06/07 07:50:37;;;;;;;;;1.00;0.00;;;;;18.36;69.25;100773.78;5033165;28;45642;-78
2022/06/07 07:53:02;;;;;;;;;0.00;0.00;;;;;18.44;69.27;100780.00;5033297;28;45498;-78
2022/06/07 07:55:28;;;;;;;;;1.00;1.00;;;;;18.53;69.16;100785.34;5033303;28;45491;-79
2022/06/07 07:57:54;;;;;;;;;1.00;1.00;;;;;18.59;69.69;100782.09;5033231;28;46174;-78
2022/06/07 08:00:19;;;;;;;;;2.00;1.75;;;;;18.59;69.65;100776.78;5014977;28;45833;-78
2022/06/07 08:02:45;;;;;;;;;2.00;2.00;;;;;18.71;69.23;100787.00;5032986;28;45682;-78
2022/06/07 08:05:11;;;;;;;;;1.00;1.00;;;;;18.73;69.09;100779.69;5043722;28;46412;-78
2022/06/07 08:07:36;;;;;;;;;1.00;1.00;;;;;18.73;69.08;100779.69;5053211;28;45634;-78
2022/06/07 08:10:05;;;;;;;;;1.25;1.00;;;;;18.76;69.00;100775.91;5053359;28;45641;-79
2022/06/07 08:12:31;;;;;;;;;1.75;1.00;;;;;18.76;68.13;100781.22;5053286;28;45692;-79
2022/06/07 08:14:57;;;;;;;;;2.00;2.00;;;;;18.74;68.44;100777.88;5053091;28;45671;-79
2022/06/07 08:20:44;;;;;;;;;2.00;2.00;;;;;18.79;68.43;100776.41;5052935;28;45592;-76
2022/06/07 08:23:10;;;;;;;;;2.00;2.00;;;;;18.89;68.39;100781.63;5034686;28;45924;-77
2022/06/07 08:25:38;;;;;;;;;2.00;2.00;;;;;18.98;68.67;100779.84;5034661;28;48711;-79
2022/06/07 08:28:04;;;;;;;;;2.25;2.25;;;;;19.02;68.09;100770.56;5052890;28;45850;-79
2022/06/07 08:30:30;;;;;;;;;2.00;2.00;;;;;19.11;68.09;100772.28;5056469;28;45640;-79
2022/06/07 08:39:04;;;;;;;;;1.00;1.00;;;;;19.33;67.29;100776.97;5055823;28;45925;-78
2022/06/07 08:41:50;;;;;;;;;2.25;2.00;;;;;19.33;66.59;100771.66;5055896;28;45589;-79
2022/06/07 08:44:22;;;;;;;;;2.00;2.00;;;;;19.39;66.59;100775.50;5056187;28;45554;-78
2022/06/07 08:46:51;;;;;;;;;2.00;2.00;;;;;19.38;66.34;100773.88;5055993;28;46502;-79
2022/06/07 08:49:19;;;;;;;;;1.75;1.25;;;;;19.39;66.08;100765.72;5055928;28;45554;-78
2022/06/07 08:51:50;;;;;;;;;2.00;2.00;;;;;19.47;65.58;100773.75;5055929;28;45608;-79
2022/06/07 08:54:20;;;;;;;;;2.75;2.00;;;;;19.49;65.71;100774.41;5056287;28;45728;-77
2022/06/07 08:56:47;;;;;;;;;2.00;1.00;;;;;19.46;65.53;100776.56;5047873;28;45652;-78
2022/06/07 08:59:17;;;;;;;;;2.00;1.00;;;;;19.45;65.41;100774.88;5055976;28;45844;-79
2022/06/07 09:01:57;;;;;;;;;1.00;1.00;;;;;19.48;65.35;100783.38;5055675;28;45743;-79
2022/06/07 09:04:29;;;;;;;;;1.00;1.00;;;;;19.44;63.92;100776.69;5055518;28;45548;-78
2022/06/07 09:07:00;;;;;;;;;1.00;1.00;;;;;19.39;63.31;100771.03;5055596;28;45491;-78
2022/06/07 09:12:21;;;;;;;;;1.00;1.00;;;;;19.46;63.11;100773.91;5055356;28;45866;-80
2022/06/07 09:15:08;;;;;;;;;0.75;0.75;;;;;19.48;63.17;100780.72;5055876;28;45651;-80
2022/06/07 09:17:58;;;;;;;;;0.75;0.00;;;;;19.53;62.45;100772.25;5055614;28;45702;-80
2022/06/07 09:20:31;;;;;;;;;0.00;0.00;;;;;19.62;62.71;100782.75;5055625;28;46253;-79
2022/06/07 09:23:20;;;;;;;;;0.00;0.00;;;;;19.68;62.08;100775.94;5036961;28;45643;-79
2022/06/07 09:25:50;;;;;;;;;2.25;1.00;;;;;19.67;61.88;100758.31;5055623;28;45569;-79
2022/06/07 09:28:29;;;;;;;;;1.00;0.00;;;;;19.71;61.53;100754.34;5055391;28;46581;-79
2022/06/07 09:34:05;;;;;;;;;0.75;0.75;;;;;19.93;60.64;100761.66;5054854;28;45697;-78
2022/06/07 09:36:35;;;;;;;;;0.00;0.00;;;;;19.95;59.83;100745.56;5055076;28;45522;-79
2022/06/07 09:39:07;;;;;;;;;0.75;0.25;;;;;20.05;59.38;100762.19;5055099;28;46563;-79
2022/06/07 09:41:44;;;;;;;;;0.00;0.00;;;;;20.14;58.95;100763.81;5054373;28;46217;-77
2022/06/07 09:44:31;;;;;;;;;0.00;0.00;;;;;20.11;57.98;100767.66;5055176;28;45653;-78
2022/06/07 09:50:34;;;;;;;;;0.00;0.00;;;;;20.25;58.17;100770.63;5055005;28;45960;-78
2022/06/07 09:53:09;;;;;;;;;0.00;0.00;;;;;20.30;58.59;100760.31;5055687;28;46247;-78
2022/06/07 09:55:42;;;;;;;;;0.00;0.00;;;;;20.30;58.71;100739.88;5054838;28;45728;-79
2022/06/07 09:58:22;;;;;;;;;0.25;0.00;;;;;20.42;58.21;100751.88;5055105;28;45597;-79
2022/06/07 10:00:57;;;;;;;;;0.50;0.00;;;;;20.46;58.14;100739.03;5054721;28;46685;-79
2022/06/07 10:06:54;;;;;;;;;0.00;0.00;;;;;20.72;57.25;100749.47;5052980;28;45886;-78
2022/06/07 10:09:37;;;;;;;;;1.00;1.00;;;;;20.81;56.96;100749.28;5054920;28;45669;-79
2022/06/07 10:12:31;;;;;;;;;1.00;1.00;;;;;20.90;57.19;100750.91;5054617;28;47031;-78
2022/06/07 10:15:08;;;;;;;;;0.00;0.00;;;;;20.92;56.50;100746.25;5054435;28;46439;-79
2022/06/07 10:18:07;;;;;;;;;0.00;0.00;;;;;20.95;56.16;100751.22;5054533;28;45559;-79
2022/06/07 10:20:59;;;;;;;;;0.75;0.75;;;;;20.95;55.93;100758.38;5054598;28;45506;-78
2022/06/07 10:24:07;;;;;;;;;0.00;0.00;;;;;20.90;55.48;100734.06;5036208;28;46793;-79
2022/06/07 10:26:50;;;;;;;;;0.00;0.00;;;;;20.94;54.80;100764.72;5054248;28;45710;-79
2022/06/07 10:29:53;;;;;;;;;0.00;0.00;;;;;20.93;54.79;100752.41;5054327;28;45600;-78
2022/06/07 10:35:46;;;;;;;;;0.00;0.00;;;;;20.84;55.00;100753.41;5053925;28;45636;-79
2022/06/07 10:38:41;;;;;;;;;0.00;0.00;;;;;20.83;55.44;100741.94;5054301;28;45578;-78
2022/06/07 10:41:21;;;;;;;;;0.25;0.25;;;;;20.83;55.06;100735.78;5053815;28;45559;-79
2022/06/07 10:43:49;;;;;;;;;0.00;0.00;;;;;20.87;54.81;100740.59;5054099;28;45746;-79
2022/06/07 10:46:17;;;;;;;;;0.25;0.25;;;;;20.86;55.14;100733.59;5054003;28;46494;-80
2022/06/07 10:52:33;;;;;;;;;2.25;1.50;;;;;21.03;54.54;100737.03;5052718;28;45445;-79
2022/06/07 10:55:04;;;;;;;;;0.50;0.50;;;;;21.09;54.26;100731.00;5035794;28;45488;-80
2022/06/07 10:57:51;;;;;;;;;0.50;0.50;;;;;21.19;54.74;100729.00;5053811;28;45612;-79
2022/06/07 11:00:30;;;;;;;;;0.00;0.00;;;;;21.24;53.96;100755.13;5053996;28;45869;-79
2022/06/07 11:03:05;;;;;;;;;0.00;0.00;;;;;21.22;53.29;100752.63;5053736;28;45718;-79
2022/06/07 11:11:33;;;;;;;;;1.00;0.25;;;;;21.15;53.71;100746.34;5053881;28;45795;-79
2022/06/07 11:14:18;;;;;;;;;0.25;0.00;;;;;21.20;53.62;100736.00;5053621;28;45681;-79
2022/06/07 11:20:16;;;;;;;;;0.00;0.00;;;;;21.30;53.31;100738.44;5053557;28;46170;-79
2022/06/07 11:22:52;;;;;;;;;0.00;0.00;;;;;21.41;53.20;100743.38;5053637;28;46521;-79
2022/06/07 11:25:33;;;;;;;;;0.00;0.00;;;;;21.51;53.49;100745.78;5053587;28;45533;-80
2022/06/07 11:28:32;;;;;;;;;0.00;0.00;;;;;21.60;52.65;100739.41;5053492;28;45864;-79
2022/06/07 11:31:25;;;;;;;;;0.00;0.00;;;;;21.62;52.31;100748.91;5034842;28;48660;-77
2022/06/07 11:37:14;;;;;;;;;0.00;0.00;;;;;21.58;51.03;100749.44;5053404;28;45608;-78
2022/06/07 11:39:40;;;;;;;;;0.00;0.00;;;;;21.57;51.13;100742.44;5053676;28;45743;-79
2022/06/07 11:42:17;;;;;;;;;0.00;0.00;;;;;21.57;50.54;100737.94;5053337;28;46590;-78
2022/06/07 11:44:43;;;;;;;;;0.00;0.00;;;;;21.57;51.26;100745.94;5053280;28;46447;-79
2022/06/07 11:47:11;;;;;;;;;0.00;0.00;;;;;21.61;50.62;100735.72;5053662;28;45433;-79
2022/06/07 11:49:46;;;;;;;;;0.00;0.00;;;;;21.65;49.81;100729.03;5053593;28;45857;-79
2022/06/07 11:52:11;;;;;;;;;0.00;0.00;;;;;21.68;49.88;100732.19;5053319;28;46700;-80
2022/06/07 11:54:53;;;;;;;;;0.00;0.00;;;;;21.73;49.38;100731.66;5053268;28;45684;-78
2022/06/07 11:57:39;;;;;;;;;0.00;0.00;;;;;21.73;49.51;100748.47;5053494;28;45784;-79
2022/06/07 12:00:17;;;;;;;;;0.00;0.00;;;;;21.75;49.35;100741.13;5053492;28;45868;-78
2022/06/07 12:03:03;;;;;;;;;0.00;0.00;;;;;21.66;49.47;100720.03;5053268;28;46698;-79
2022/06/07 12:05:37;;;;;;;;;0.00;0.00;;;;;21.75;49.71;100742.97;5055918;28;45953;-78
2022/06/07 12:08:24;;;;;;;;;0.00;0.00;;;;;21.78;49.93;100730.09;5056917;28;45760;-78
2022/06/07 12:11:02;;;;;;;;;0.00;0.00;;;;;21.84;50.85;100722.41;5056673;28;45541;-79
2022/06/07 12:13:51;;;;;;;;;0.00;0.00;;;;;21.78;50.19;100716.75;5056652;28;45502;-80
2022/06/07 12:16:34;;;;;;;;;0.00;0.00;;;;;21.93;49.08;100731.97;5056516;28;46173;-79
2022/06/07 12:19:02;;;;;;;;;0.00;0.00;;;;;21.96;49.78;100726.34;5056856;28;45807;-80
2022/06/07 12:21:31;;;;;;;;;1.00;0.00;;;;;21.91;48.93;100713.50;5056613;28;45685;-78
2022/06/07 12:24:17;;;;;;;;;0.00;0.00;;;;;21.96;48.54;100719.16;5056706;28;45643;-78
2022/06/07 12:26:46;;;;;;;;;1.00;0.00;;;;;21.95;48.98;100706.00;5056628;28;46197;-79
2022/06/07 12:29:24;;;;;;;;;0.00;0.00;;;;;22.00;48.30;100722.28;5056549;28;45687;-79
2022/06/07 12:32:06;;;;;;;;;0.00;0.00;;;;;21.92;48.77;100703.63;5056392;28;45464;-79
2022/06/07 12:34:36;;;;;;;;;0.00;0.00;;;;;21.95;48.92;100706.00;5056101;28;46840;-80
2022/06/07 12:37:04;;;;;;;;;0.00;0.00;;;;;21.98;49.65;100710.94;5056304;28;45967;-78
2022/06/07 12:39:31;;;;;;;;;0.00;0.00;;;;;21.94;50.25;100694.50;5056297;28;45747;-77
2022/06/07 12:42:24;;;;;;;;;0.00;0.00;;;;;22.06;50.09;100718.91;5056123;28;45685;-80
2022/06/07 12:44:51;;;;;;;;;0.50;0.00;;;;;22.07;49.85;100700.06;5053294;28;45746;-79
2022/06/07 12:50:41;;;;;;;;;0.00;0.00;;;;;22.07;49.85;100699.22;5055732;28;45741;-78
2022/06/07 12:53:16;;;;;;;;;1.25;0.00;;;;;22.09;49.57;100706.00;5056170;28;45574;-79
2022/06/07 12:55:42;;;;;;;;;0.00;0.00;;;;;22.06;48.93;100695.72;5037352;28;47478;-78
2022/06/07 12:58:19;;;;;;;;;0.00;0.00;;;;;22.15;49.30;100699.13;5055757;28;46080;-80
2022/06/07 13:00:46;;;;;;;;;0.00;0.00;;;;;22.24;49.86;100698.03;5055681;28;45606;-79
2022/06/07 13:06:33;;;;;;;;;0.00;0.00;;;;;22.34;49.23;100682.59;5055270;28;45965;-78
2022/06/07 13:09:05;;;;;;;;;0.00;0.00;;;;;22.36;49.46;100687.72;5055704;28;45627;-79
2022/06/07 13:11:37;;;;;;;;;0.00;0.00;;;;;22.42;49.04;100693.16;5055646;28;45662;-79
2022/06/07 13:14:03;;;;;;;;;0.25;0.00;;;;;22.43;49.05;100678.81;5055741;28;45615;-79
2022/06/07 13:16:42;;;;;;;;;1.00;0.00;;;;;22.57;49.29;100694.00;5054551;28;45746;-78